sensor_id;sensor_type;location;lat;lon;timestamp;temperature;humidity
1602;DHT22;794;48.592;9.634;2023-04-25T04:09:27;8.00;1.00
1602;DHT22;794;48.592;9.634;2023-04-25T04:11:55;7.00;1.00
1602;DHT22;794;48.592;9.634;2023-04-25T04:14:25;7.30;1.00
1602;DHT22;794;48.592;9.634;2023-04-25T04:16:52;6.60;1.00
1602;DHT22;794;48.592;9.634;2023-04-25T04:19:19;6.00;1.00
1602;DHT22;794;48.592;9.634;2023-04-25T04:21:46;7.10;1.00
1602;DHT22;794;48.592;9.634;2023-04-25T04:24:13;7.30;1.00
1602;DHT22;794;48.592;9.634;2023-04-25T04:26:44;7.20;1.00
1602;DHT22;794;48.592;9.634;2023-04-25T04:29:11;8.10;1.00
1602;DHT22;794;48.592;9.634;2023-04-25T04:31:47;7.30;1.00
1602;DHT22;794;48.592;9.634;2023-04-25T04:34:14;7.10;1.00
1602;DHT22;794;48.592;9.634;2023-04-25T04:36:44;7.10;1.00
1602;DHT22;794;48.592;9.634;2023-04-25T04:39:15;7.10;1.00
1602;DHT22;794;48.592;9.634;2023-04-25T04:41:45;7.30;1.00
1602;DHT22;794;48.592;9.634;2023-04-25T04:44:15;7.10;1.00
1602;DHT22;794;48.592;9.634;2023-04-25T04:46:45;8.00;1.00
1602;DHT22;794;48.592;9.634;2023-04-25T04:49:15;7.60;1.00
1602;DHT22;794;48.592;9.634;2023-04-25T04:51:44;7.70;1.00
1602;DHT22;794;48.592;9.634;2023-04-25T04:54:11;7.50;1.00
1602;DHT22;794;48.592;9.634;2023-04-25T04:56:38;7.70;1.00
1602;DHT22;794;48.592;9.634;2023-04-25T04:59:13;7.90;1.00
1602;DHT22;794;48.592;9.634;2023-04-25T05:01:45;8.50;1.00
1602;DHT22;794;48.592;9.634;2023-04-25T05:04:16;8.40;1.00
1602;DHT22;794;48.592;9.634;2023-04-25T05:06:44;8.20;1.00
1602;DHT22;794;48.592;9.634;2023-04-25T05:09:11;8.30;1.00
1602;DHT22;794;48.592;9.634;2023-04-25T05:11:38;9.50;1.00
1602;DHT22;794;48.592;9.634;2023-04-25T05:14:05;8.30;1.00
1602;DHT22;794;48.592;9.634;2023-04-25T05:16:35;8.40;1.00
1602;DHT22;794;48.592;9.634;2023-04-25T05:19:05;8.60;1.00
1602;DHT22;794;48.592;9.634;2023-04-25T05:21:33;8.30;1.00
1602;DHT22;794;48.592;9.634;2023-04-25T05:24:01;8.50;1.00
1602;DHT22;794;48.592;9.634;2023-04-25T05:26:30;8.50;1.00
1602;DHT22;794;48.592;9.634;2023-04-25T05:29:00;8.60;1.00
1602;DHT22;794;48.592;9.634;2023-04-25T05:31:30;8.80;1.00
1602;DHT22;794;48.592;9.634;2023-04-25T05:34:00;9.00;1.00
1602;DHT22;794;48.592;9.634;2023-04-25T05:36:29;9.10;1.00
1602;DHT22;794;48.592;9.634;2023-04-25T05:39:00;9.00;1.00
1602;DHT22;794;48.592;9.634;2023-04-25T05:41:29;9.00;1.00
1602;DHT22;794;48.592;9.634;2023-04-25T05:43:58;9.00;1.00
1602;DHT22;794;48.592;9.634;2023-04-25T05:46:25;8.80;1.00
1602;DHT22;794;48.592;9.634;2023-04-25T05:48:55;9.10;1.00
1602;DHT22;794;48.592;9.634;2023-04-25T05:51:27;8.70;1.00
1602;DHT22;794;48.592;9.634;2023-04-25T05:54:00;8.60;1.00
1602;DHT22;794;48.592;9.634;2023-04-25T05:56:28;8.40;1.00
1602;DHT22;794;48.592;9.634;2023-04-25T05:58:56;8.70;1.00
1602;DHT22;794;48.592;9.634;2023-04-25T06:01:23;8.40;1.00
1602;DHT22;794;48.592;9.634;2023-04-25T06:03:54;8.40;1.00
1602;DHT22;794;48.592;9.634;2023-04-25T06:06:38;8.70;1.00
1602;DHT22;794;48.592;9.634;2023-04-25T06:09:11;8.90;1.00
1602;DHT22;794;48.592;9.634;2023-04-25T06:11:41;9.00;1.00
1602;DHT22;794;48.592;9.634;2023-04-25T06:14:10;8.60;1.00
1602;DHT22;794;48.592;9.634;2023-04-25T06:16:37;8.70;1.00
1602;DHT22;794;48.592;9.634;2023-04-25T06:19:04;8.60;1.00
1602;DHT22;794;48.592;9.634;2023-04-25T06:21:31;8.80;1.00
1602;DHT22;794;48.592;9.634;2023-04-25T06:24:05;8.80;1.00
1602;DHT22;794;48.592;9.634;2023-04-25T06:26:35;10.30;1.00
1602;DHT22;794;48.592;9.634;2023-04-25T06:29:05;8.70;1.00
1602;DHT22;794;48.592;9.634;2023-04-25T06:31:35;9.00;1.00
1602;DHT22;794;48.592;9.634;2023-04-25T06:34:01;8.90;1.00
1602;DHT22;794;48.592;9.634;2023-04-25T06:36:31;8.60;1.00
1602;DHT22;794;48.592;9.634;2023-04-25T06:38:58;8.60;1.00
1602;DHT22;794;48.592;9.634;2023-04-25T06:41:28;8.60;1.00
1602;DHT22;794;48.592;9.634;2023-04-25T06:43:55;8.70;1.00
1602;DHT22;794;48.592;9.634;2023-04-25T06:46:24;8.60;1.00
1602;DHT22;794;48.592;9.634;2023-04-25T06:48:51;8.90;1.00
1602;DHT22;794;48.592;9.634;2023-04-25T06:51:19;9.20;1.00
1602;DHT22;794;48.592;9.634;2023-04-25T06:53:46;9.70;1.00
1602;DHT22;794;48.592;9.634;2023-04-25T06:56:15;9.60;1.00
1602;DHT22;794;48.592;9.634;2023-04-25T06:58:47;10.00;1.00
1602;DHT22;794;48.592;9.634;2023-04-25T07:01:14;10.70;1.00
1602;DHT22;794;48.592;9.634;2023-04-25T07:03:41;10.30;1.00
1602;DHT22;794;48.592;9.634;2023-04-25T07:06:08;10.30;1.00
1602;DHT22;794;48.592;9.634;2023-04-25T07:08:35;10.30;1.00
1602;DHT22;794;48.592;9.634;2023-04-25T07:11:05;10.20;1.00
1602;DHT22;794;48.592;9.634;2023-04-25T07:13:34;10.20;1.00
1602;DHT22;794;48.592;9.634;2023-04-25T07:16:03;10.20;1.00
1602;DHT22;794;48.592;9.634;2023-04-25T07:18:31;10.10;1.00
1602;DHT22;794;48.592;9.634;2023-04-25T07:21:00;10.00;1.00
1602;DHT22;794;48.592;9.634;2023-04-25T07:23:30;10.10;1.00
1602;DHT22;794;48.592;9.634;2023-04-25T07:25:59;10.70;1.00
1602;DHT22;794;48.592;9.634;2023-04-25T07:28:27;9.70;1.00
1602;DHT22;794;48.592;9.634;2023-04-25T07:30:56;9.60;1.00
1602;DHT22;794;48.592;9.634;2023-04-25T07:33:25;9.50;1.00
1602;DHT22;794;48.592;9.634;2023-04-25T07:35:59;9.20;1.00
1602;DHT22;794;48.592;9.634;2023-04-25T07:38:28;9.50;1.00
1602;DHT22;794;48.592;9.634;2023-04-25T07:40:55;9.00;1.00
1602;DHT22;794;48.592;9.634;2023-04-25T07:43:24;8.90;1.00
1602;DHT22;794;48.592;9.634;2023-04-25T07:45:51;9.30;1.00
1602;DHT22;794;48.592;9.634;2023-04-25T07:48:18;9.30;1.00
1602;DHT22;794;48.592;9.634;2023-04-25T07:50:50;9.40;1.00
1602;DHT22;794;48.592;9.634;2023-04-25T07:53:19;9.00;1.00
1602;DHT22;794;48.592;9.634;2023-04-25T07:55:46;9.00;1.00
1602;DHT22;794;48.592;9.634;2023-04-25T07:58:14;9.30;1.00
1602;DHT22;794;48.592;9.634;2023-04-25T08:00:41;9.50;1.00
1602;DHT22;794;48.592;9.634;2023-04-25T08:03:23;9.30;1.00
1602;DHT22;794;48.592;9.634;2023-04-25T08:05:54;9.40;1.00
1602;DHT22;794;48.592;9.634;2023-04-25T08:08:25;9.30;1.00
1602;DHT22;794;48.592;9.634;2023-04-25T08:10:55;8.70;1.00
1602;DHT22;794;48.592;9.634;2023-04-25T08:13:25;9.20;1.00
1602;DHT22;794;48.592;9.634;2023-04-25T08:15:55;7.30;1.00
1602;DHT22;794;48.592;9.634;2023-04-25T08:18:25;8.70;1.00
1602;DHT22;794;48.592;9.634;2023-04-25T08:20:55;7.70;1.00
1602;DHT22;794;48.592;9.634;2023-04-25T08:23:25;9.00;1.00
1602;DHT22;794;48.592;9.634;2023-04-25T08:25:54;8.90;1.00
1602;DHT22;794;48.592;9.634;2023-04-25T08:28:21;8.90;1.00
1602;DHT22;794;48.592;9.634;2023-04-25T08:30:51;8.70;1.00
1602;DHT22;794;48.592;9.634;2023-04-25T08:33:20;8.60;1.00
1602;DHT22;794;48.592;9.634;2023-04-25T08:35:49;8.70;1.00
1602;DHT22;794;48.592;9.634;2023-04-25T08:38:20;8.70;1.00
1602;DHT22;794;48.592;9.634;2023-04-25T08:40:50;8.00;1.00
1602;DHT22;794;48.592;9.634;2023-04-25T08:43:18;8.50;1.00
1602;DHT22;794;48.592;9.634;2023-04-25T08:45:46;8.90;1.00
1602;DHT22;794;48.592;9.634;2023-04-25T08:48:20;8.70;1.00
1602;DHT22;794;48.592;9.634;2023-04-25T08:50:51;8.90;1.00
1602;DHT22;794;48.592;9.634;2023-04-25T08:53:25;8.90;1.00
1602;DHT22;794;48.592;9.634;2023-04-25T08:55:57;9.10;1.00
1602;DHT22;794;48.592;9.634;2023-04-25T08:58:24;9.20;1.00
1602;DHT22;794;48.592;9.634;2023-04-25T09:00:55;9.20;1.00
1602;DHT22;794;48.592;9.634;2023-04-25T09:03:22;8.60;1.00
1602;DHT22;794;48.592;9.634;2023-04-25T09:05:50;8.90;1.00
1602;DHT22;794;48.592;9.634;2023-04-25T09:08:19;9.00;1.00
1602;DHT22;794;48.592;9.634;2023-04-25T09:10:48;9.30;1.00
1602;DHT22;794;48.592;9.634;2023-04-25T09:13:25;9.10;1.00
1602;DHT22;794;48.592;9.634;2023-04-25T09:15:53;8.90;1.00
1602;DHT22;794;48.592;9.634;2023-04-25T09:18:24;8.80;1.00
1602;DHT22;794;48.592;9.634;2023-04-25T09:20:55;9.20;1.00
1602;DHT22;794;48.592;9.634;2023-04-25T09:23:24;10.20;1.00
1602;DHT22;794;48.592;9.634;2023-04-25T09:25:55;8.60;1.00
1602;DHT22;794;48.592;9.634;2023-04-25T09:28:26;8.50;1.00
1602;DHT22;794;48.592;9.634;2023-04-25T09:30:56;8.80;1.00
1602;DHT22;794;48.592;9.634;2023-04-25T09:33:28;8.90;1.00
1602;DHT22;794;48.592;9.634;2023-04-25T09:36:02;8.90;1.00
1602;DHT22;794;48.592;9.634;2023-04-25T09:38:30;8.80;1.00
1602;DHT22;794;48.592;9.634;2023-04-25T09:40:59;8.80;1.00
1602;DHT22;794;48.592;9.634;2023-04-25T09:43:30;9.80;1.00
1602;DHT22;794;48.592;9.634;2023-04-25T09:46:00;8.60;1.00
1602;DHT22;794;48.592;9.634;2023-04-25T09:48:31;8.60;1.00
1602;DHT22;794;48.592;9.634;2023-04-25T09:51:06;8.70;1.00
1602;DHT22;794;48.592;9.634;2023-04-25T09:53:40;8.50;1.00
1602;DHT22;794;48.592;9.634;2023-04-25T09:56:09;8.20;1.00
1602;DHT22;794;48.592;9.634;2023-04-25T09:58:40;8.10;1.00
1602;DHT22;794;48.592;9.634;2023-04-25T10:01:10;8.20;1.00
1602;DHT22;794;48.592;9.634;2023-04-25T10:03:40;7.20;1.00
1602;DHT22;794;48.592;9.634;2023-04-25T10:06:18;8.60;1.00
1602;DHT22;794;48.592;9.634;2023-04-25T10:08:50;8.50;1.00
1602;DHT22;794;48.592;9.634;2023-04-25T10:11:21;8.40;1.00
1602;DHT22;794;48.592;9.634;2023-04-25T10:13:49;8.70;1.00
1602;DHT22;794;48.592;9.634;2023-04-25T10:16:20;8.30;1.00
1602;DHT22;794;48.592;9.634;2023-04-25T10:18:48;8.70;1.00
1602;DHT22;794;48.592;9.634;2023-04-25T10:21:16;8.80;1.00
1602;DHT22;794;48.592;9.634;2023-04-25T10:23:50;9.00;1.00
1602;DHT22;794;48.592;9.634;2023-04-25T10:26:21;7.40;1.00
1602;DHT22;794;48.592;9.634;2023-04-25T10:28:55;9.10;1.00
1602;DHT22;794;48.592;9.634;2023-04-25T10:31:25;10.80;1.00
1602;DHT22;794;48.592;9.634;2023-04-25T10:33:53;9.20;1.00
1602;DHT22;794;48.592;9.634;2023-04-25T10:36:21;9.50;1.00
1602;DHT22;794;48.592;9.634;2023-04-25T10:38:50;9.30;1.00
1602;DHT22;794;48.592;9.634;2023-04-25T10:41:18;9.50;1.00
1602;DHT22;794;48.592;9.634;2023-04-25T10:43:47;9.10;1.00
1602;DHT22;794;48.592;9.634;2023-04-25T10:46:17;9.40;1.00
1602;DHT22;794;48.592;9.634;2023-04-25T10:48:55;9.30;1.00
1602;DHT22;794;48.592;9.634;2023-04-25T10:51:25;9.20;1.00
1602;DHT22;794;48.592;9.634;2023-04-25T10:54:00;9.30;1.00
1602;DHT22;794;48.592;9.634;2023-04-25T10:56:28;9.30;1.00
1602;DHT22;794;48.592;9.634;2023-04-25T10:59:13;9.30;1.00
1602;DHT22;794;48.592;9.634;2023-04-25T11:01:42;9.20;1.00
1602;DHT22;794;48.592;9.634;2023-04-25T11:04:22;9.00;1.00
1602;DHT22;794;48.592;9.634;2023-04-25T11:07:00;9.00;1.00
1602;DHT22;794;48.592;9.634;2023-04-25T11:09:36;9.20;1.00
1602;DHT22;794;48.592;9.634;2023-04-25T11:12:06;9.10;1.00
1602;DHT22;794;48.592;9.634;2023-04-25T11:14:36;8.90;1.00
1602;DHT22;794;48.592;9.634;2023-04-25T11:17:05;8.90;1.00
1602;DHT22;794;48.592;9.634;2023-04-25T11:19:35;9.00;1.00
1602;DHT22;794;48.592;9.634;2023-04-25T11:22:05;8.90;1.00
1602;DHT22;794;48.592;9.634;2023-04-25T11:24:34;8.20;1.00
1602;DHT22;794;48.592;9.634;2023-04-25T11:27:05;9.00;1.00
1602;DHT22;794;48.592;9.634;2023-04-25T11:29:35;8.90;1.00
1602;DHT22;794;48.592;9.634;2023-04-25T11:32:05;9.10;1.00
1602;DHT22;794;48.592;9.634;2023-04-25T11:34:35;8.80;1.00
1602;DHT22;794;48.592;9.634;2023-04-25T11:37:04;8.80;1.00
1602;DHT22;794;48.592;9.634;2023-04-25T11:39:31;9.00;1.00
1602;DHT22;794;48.592;9.634;2023-04-25T11:42:02;9.00;1.00
1602;DHT22;794;48.592;9.634;2023-04-25T11:44:31;9.20;1.00
1602;DHT22;794;48.592;9.634;2023-04-25T11:47:03;9.00;1.00
1602;DHT22;794;48.592;9.634;2023-04-25T11:49:31;9.00;1.00
1602;DHT22;794;48.592;9.634;2023-04-25T11:52:01;8.90;1.00
1602;DHT22;794;48.592;9.634;2023-04-25T11:54:29;9.20;1.00
1602;DHT22;794;48.592;9.634;2023-04-25T11:56:56;8.80;1.00
1602;DHT22;794;48.592;9.634;2023-04-25T11:59:29;8.30;1.00
1602;DHT22;794;48.592;9.634;2023-04-25T12:01:56;8.60;1.00
1602;DHT22;794;48.592;9.634;2023-04-25T12:04:26;8.40;1.00
1602;DHT22;794;48.592;9.634;2023-04-25T12:06:56;8.40;1.00
1602;DHT22;794;48.592;9.634;2023-04-25T12:09:33;8.70;1.00
1602;DHT22;794;48.592;9.634;2023-04-25T12:12:00;8.80;1.00
1602;DHT22;794;48.592;9.634;2023-04-25T12:14:31;9.10;1.00
1602;DHT22;794;48.592;9.634;2023-04-25T12:17:01;9.30;1.00
1602;DHT22;794;48.592;9.634;2023-04-25T12:19:34;10.00;1.00
1602;DHT22;794;48.592;9.634;2023-04-25T12:22:02;9.70;1.00
1602;DHT22;794;48.592;9.634;2023-04-25T12:24:35;10.10;1.00
1602;DHT22;794;48.592;9.634;2023-04-25T12:27:05;9.80;1.00
1602;DHT22;794;48.592;9.634;2023-04-25T12:29:34;9.60;1.00
1602;DHT22;794;48.592;9.634;2023-04-25T12:32:01;9.70;1.00
1602;DHT22;794;48.592;9.634;2023-04-25T12:34:36;9.40;1.00
1602;DHT22;794;48.592;9.634;2023-04-25T12:37:03;11.20;1.00
1602;DHT22;794;48.592;9.634;2023-04-25T12:39:30;9.90;1.00
1602;DHT22;794;48.592;9.634;2023-04-25T12:42:06;9.70;1.00
1602;DHT22;794;48.592;9.634;2023-04-25T12:44:39;8.10;1.00
1602;DHT22;794;48.592;9.634;2023-04-25T12:47:06;9.80;1.00
1602;DHT22;794;48.592;9.634;2023-04-25T12:49:38;9.40;1.00
1602;DHT22;794;48.592;9.634;2023-04-25T12:52:06;10.00;1.00
1602;DHT22;794;48.592;9.634;2023-04-25T12:54:36;8.30;1.00
1602;DHT22;794;48.592;9.634;2023-04-25T12:57:04;9.50;1.00
1602;DHT22;794;48.592;9.634;2023-04-25T12:59:34;9.30;1.00
1602;DHT22;794;48.592;9.634;2023-04-25T13:02:01;9.10;1.00
1602;DHT22;794;48.592;9.634;2023-04-25T13:04:30;9.10;1.00
1602;DHT22;794;48.592;9.634;2023-04-25T13:06:59;9.00;1.00
1602;DHT22;794;48.592;9.634;2023-04-25T13:09:26;9.10;1.00
1602;DHT22;794;48.592;9.634;2023-04-25T13:11:54;9.20;1.00
1602;DHT22;794;48.592;9.634;2023-04-25T13:14:21;9.00;1.00
1602;DHT22;794;48.592;9.634;2023-04-25T13:16:50;7.30;1.00
1602;DHT22;794;48.592;9.634;2023-04-25T13:19:20;8.90;1.00
1602;DHT22;794;48.592;9.634;2023-04-25T13:21:46;8.90;1.00
1602;DHT22;794;48.592;9.634;2023-04-25T13:24:15;8.80;1.00
1602;DHT22;794;48.592;9.634;2023-04-25T13:26:44;9.40;1.00
1602;DHT22;794;48.592;9.634;2023-04-25T13:29:10;9.30;1.00
1602;DHT22;794;48.592;9.634;2023-04-25T13:31:41;9.50;1.00
1602;DHT22;794;48.592;9.634;2023-04-25T13:34:10;9.90;1.00
1602;DHT22;794;48.592;9.634;2023-04-25T13:36:41;10.10;1.00
1602;DHT22;794;48.592;9.634;2023-04-25T13:39:10;10.90;1.00
1602;DHT22;794;48.592;9.634;2023-04-25T13:41:39;10.40;1.00
1602;DHT22;794;48.592;9.634;2023-04-25T13:44:06;10.10;1.00
1602;DHT22;794;48.592;9.634;2023-04-25T13:46:36;10.30;1.00
1602;DHT22;794;48.592;9.634;2023-04-25T13:49:05;10.30;1.00
1602;DHT22;794;48.592;9.634;2023-04-25T13:51:34;10.50;1.00
1602;DHT22;794;48.592;9.634;2023-04-25T13:54:01;10.20;1.00
1602;DHT22;794;48.592;9.634;2023-04-25T13:56:31;10.70;1.00
1602;DHT22;794;48.592;9.634;2023-04-25T13:59:01;10.40;1.00
1602;DHT22;794;48.592;9.634;2023-04-25T14:01:31;10.10;1.00
1602;DHT22;794;48.592;9.634;2023-04-25T14:03:59;10.70;1.00
1602;DHT22;794;48.592;9.634;2023-04-25T14:06:27;10.70;1.00
1602;DHT22;794;48.592;9.634;2023-04-25T14:08:54;10.60;1.00
1602;DHT22;794;48.592;9.634;2023-04-25T14:11:21;10.70;1.00
1602;DHT22;794;48.592;9.634;2023-04-25T14:13:50;10.30;1.00
1602;DHT22;794;48.592;9.634;2023-04-25T14:16:19;10.00;1.00
1602;DHT22;794;48.592;9.634;2023-04-25T14:18:46;10.00;1.00
1602;DHT22;794;48.592;9.634;2023-04-25T14:21:16;10.30;1.00
1602;DHT22;794;48.592;9.634;2023-04-25T14:23:46;10.30;1.00
1602;DHT22;794;48.592;9.634;2023-04-25T14:26:16;10.20;1.00
1602;DHT22;794;48.592;9.634;2023-04-25T14:28:45;10.10;1.00
1602;DHT22;794;48.592;9.634;2023-04-25T14:31:15;10.10;1.00
1602;DHT22;794;48.592;9.634;2023-04-25T14:33:44;10.40;1.00
1602;DHT22;794;48.592;9.634;2023-04-25T14:36:11;10.50;1.00
1602;DHT22;794;48.592;9.634;2023-04-25T14:38:39;10.60;1.00
1602;DHT22;794;48.592;9.634;2023-04-25T14:41:06;10.50;1.00
1602;DHT22;794;48.592;9.634;2023-04-25T14:43:36;10.70;1.00
1602;DHT22;794;48.592;9.634;2023-04-25T14:46:05;10.60;1.00
1602;DHT22;794;48.592;9.634;2023-04-25T14:48:32;10.80;1.00
1602;DHT22;794;48.592;9.634;2023-04-25T14:51:05;11.30;1.00
1602;DHT22;794;48.592;9.634;2023-04-25T14:53:32;10.70;1.00
1602;DHT22;794;48.592;9.634;2023-04-25T14:55:59;11.00;1.00
1602;DHT22;794;48.592;9.634;2023-04-25T14:58:26;10.80;1.00
1602;DHT22;794;48.592;9.634;2023-04-25T15:00:56;10.70;1.00
1602;DHT22;794;48.592;9.634;2023-04-25T15:03:23;10.90;1.00
1602;DHT22;794;48.592;9.634;2023-04-25T15:05:55;10.60;1.00
1602;DHT22;794;48.592;9.634;2023-04-25T15:08:23;11.80;1.00
1602;DHT22;794;48.592;9.634;2023-04-25T15:10:51;10.90;1.00
1602;DHT22;794;48.592;9.634;2023-04-25T15:13:21;11.30;1.00
1602;DHT22;794;48.592;9.634;2023-04-25T15:15:51;11.20;1.00
1602;DHT22;794;48.592;9.634;2023-04-25T15:18:21;11.10;1.00
1602;DHT22;794;48.592;9.634;2023-04-25T15:20:52;11.20;1.00
1602;DHT22;794;48.592;9.634;2023-04-25T15:23:20;11.20;1.00
1602;DHT22;794;48.592;9.634;2023-04-25T15:25:51;11.20;1.00
1602;DHT22;794;48.592;9.634;2023-04-25T15:28:38;11.10;1.00
1602;DHT22;794;48.592;9.634;2023-04-25T15:31:07;11.20;1.00
1602;DHT22;794;48.592;9.634;2023-04-25T15:33:34;10.90;1.00
1602;DHT22;794;48.592;9.634;2023-04-25T15:36:01;11.10;1.00
1602;DHT22;794;48.592;9.634;2023-04-25T15:38:28;10.60;1.00
1602;DHT22;794;48.592;9.634;2023-04-25T15:40:57;10.30;1.00
1602;DHT22;794;48.592;9.634;2023-04-25T15:43:24;10.20;1.00
1602;DHT22;794;48.592;9.634;2023-04-25T15:45:51;10.10;1.00
1602;DHT22;794;48.592;9.634;2023-04-25T15:48:20;10.00;1.00
1602;DHT22;794;48.592;9.634;2023-04-25T15:50:49;10.00;1.00
1602;DHT22;794;48.592;9.634;2023-04-25T15:53:16;9.90;1.00
1602;DHT22;794;48.592;9.634;2023-04-25T15:55:46;9.90;1.00
1602;DHT22;794;48.592;9.634;2023-04-25T15:58:17;9.90;1.00
1602;DHT22;794;48.592;9.634;2023-04-25T16:00:44;10.00;1.00
1602;DHT22;794;48.592;9.634;2023-04-25T16:03:13;10.10;1.00
1602;DHT22;794;48.592;9.634;2023-04-25T16:05:41;10.10;1.00
1602;DHT22;794;48.592;9.634;2023-04-25T16:08:10;10.20;1.00
1602;DHT22;794;48.592;9.634;2023-04-25T16:10:40;10.10;1.00
1602;DHT22;794;48.592;9.634;2023-04-25T16:13:10;9.80;1.00
1602;DHT22;794;48.592;9.634;2023-04-25T16:15:39;9.80;1.00
1602;DHT22;794;48.592;9.634;2023-04-25T16:18:06;9.90;1.00
1602;DHT22;794;48.592;9.634;2023-04-25T16:20:35;9.80;1.00
1602;DHT22;794;48.592;9.634;2023-04-25T16:23:02;10.10;1.00
1602;DHT22;794;48.592;9.634;2023-04-25T16:25:29;9.90;1.00
1602;DHT22;794;48.592;9.634;2023-04-25T16:27:55;10.10;1.00
1602;DHT22;794;48.592;9.634;2023-04-25T16:30:25;10.30;1.00
1602;DHT22;794;48.592;9.634;2023-04-25T16:32:57;8.90;1.00
1602;DHT22;794;48.592;9.634;2023-04-25T16:35:27;10.50;1.00
1602;DHT22;794;48.592;9.634;2023-04-25T16:37:57;10.10;1.00
1602;DHT22;794;48.592;9.634;2023-04-25T16:40:24;9.90;1.00
1602;DHT22;794;48.592;9.634;2023-04-25T16:42:51;9.80;1.00
1602;DHT22;794;48.592;9.634;2023-04-25T16:45:20;9.70;1.00
1602;DHT22;794;48.592;9.634;2023-04-25T16:47:47;9.60;1.00
1602;DHT22;794;48.592;9.634;2023-04-25T16:50:17;9.60;1.00
1602;DHT22;794;48.592;9.634;2023-04-25T16:52:44;9.80;1.00
1602;DHT22;794;48.592;9.634;2023-04-25T16:55:11;9.90;1.00
1602;DHT22;794;48.592;9.634;2023-04-25T16:57:45;9.70;1.00
1602;DHT22;794;48.592;9.634;2023-04-25T17:00:15;9.70;1.00
1602;DHT22;794;48.592;9.634;2023-04-25T17:02:45;9.90;1.00
1602;DHT22;794;48.592;9.634;2023-04-25T17:05:17;9.60;1.00
1602;DHT22;794;48.592;9.634;2023-04-25T17:07:44;9.60;1.00
1602;DHT22;794;48.592;9.634;2023-04-25T17:10:11;9.50;1.00
1602;DHT22;794;48.592;9.634;2023-04-25T17:12:38;9.60;1.00
1602;DHT22;794;48.592;9.634;2023-04-25T17:15:06;9.40;1.00
1602;DHT22;794;48.592;9.634;2023-04-25T17:17:34;9.80;1.00
1602;DHT22;794;48.592;9.634;2023-04-25T17:20:01;9.50;1.00
1602;DHT22;794;48.592;9.634;2023-04-25T17:22:30;9.10;1.00
1602;DHT22;794;48.592;9.634;2023-04-25T17:24:57;8.90;1.00
1602;DHT22;794;48.592;9.634;2023-04-25T17:27:27;8.40;1.00
1602;DHT22;794;48.592;9.634;2023-04-25T17:29:54;7.60;1.00
1602;DHT22;794;48.592;9.634;2023-04-25T17:32:21;7.50;1.00
1602;DHT22;794;48.592;9.634;2023-04-25T17:34:49;7.50;1.00
1602;DHT22;794;48.592;9.634;2023-04-25T17:37:16;7.20;1.00
1602;DHT22;794;48.592;9.634;2023-04-25T17:39:45;7.50;1.00
1602;DHT22;794;48.592;9.634;2023-04-25T17:42:15;7.40;1.00
1602;DHT22;794;48.592;9.634;2023-04-25T17:44:45;7.40;1.00
1602;DHT22;794;48.592;9.634;2023-04-25T17:47:15;7.10;1.00
1602;DHT22;794;48.592;9.634;2023-04-25T17:49:45;7.30;1.00
1602;DHT22;794;48.592;9.634;2023-04-25T17:52:14;6.90;1.00
1602;DHT22;794;48.592;9.634;2023-04-25T17:54:42;7.70;1.00
1602;DHT22;794;48.592;9.634;2023-04-25T17:57:10;7.60;1.00
1602;DHT22;794;48.592;9.634;2023-04-25T17:59:37;7.60;1.00
1602;DHT22;794;48.592;9.634;2023-04-25T18:02:07;7.40;1.00
1602;DHT22;794;48.592;9.634;2023-04-25T18:04:35;7.50;1.00
1602;DHT22;794;48.592;9.634;2023-04-25T18:07:05;7.50;1.00
1602;DHT22;794;48.592;9.634;2023-04-25T18:09:36;8.00;1.00
1602;DHT22;794;48.592;9.634;2023-04-25T18:12:04;7.40;1.00
1602;DHT22;794;48.592;9.634;2023-04-25T18:14:34;7.60;1.00
1602;DHT22;794;48.592;9.634;2023-04-25T18:17:01;7.30;1.00
1602;DHT22;794;48.592;9.634;2023-04-25T18:19:31;7.60;1.00
1602;DHT22;794;48.592;9.634;2023-04-25T18:22:01;7.40;1.00
1602;DHT22;794;48.592;9.634;2023-04-25T18:24:30;7.40;1.00
1602;DHT22;794;48.592;9.634;2023-04-25T18:27:00;7.40;1.00
1602;DHT22;794;48.592;9.634;2023-04-25T18:29:30;7.60;1.00
1602;DHT22;794;48.592;9.634;2023-04-25T18:32:00;7.50;1.00
1602;DHT22;794;48.592;9.634;2023-04-25T18:34:31;7.50;1.00
1602;DHT22;794;48.592;9.634;2023-04-25T18:37:00;7.30;1.00
1602;DHT22;794;48.592;9.634;2023-04-25T18:39:27;7.40;1.00
1602;DHT22;794;48.592;9.634;2023-04-25T18:41:53;7.30;1.00
1602;DHT22;794;48.592;9.634;2023-04-25T18:44:22;7.50;1.00
1602;DHT22;794;48.592;9.634;2023-04-25T18:46:49;7.30;1.00
1602;DHT22;794;48.592;9.634;2023-04-25T18:49:20;7.40;1.00
1602;DHT22;794;48.592;9.634;2023-04-25T18:51:50;7.40;1.00
1602;DHT22;794;48.592;9.634;2023-04-25T18:54:20;7.30;1.00
1602;DHT22;794;48.592;9.634;2023-04-25T18:56:49;7.30;1.00
1602;DHT22;794;48.592;9.634;2023-04-25T18:59:16;7.30;1.00
1602;DHT22;794;48.592;9.634;2023-04-25T19:01:46;7.30;1.00
1602;DHT22;794;48.592;9.634;2023-04-25T19:04:19;7.40;1.00
1602;DHT22;794;48.592;9.634;2023-04-25T19:06:46;7.40;1.00
1602;DHT22;794;48.592;9.634;2023-04-25T19:09:16;7.50;1.00
1602;DHT22;794;48.592;9.634;2023-04-25T19:11:46;7.60;1.00
1602;DHT22;794;48.592;9.634;2023-04-25T19:14:13;7.40;1.00
1602;DHT22;794;48.592;9.634;2023-04-25T19:16:40;7.40;1.00
1602;DHT22;794;48.592;9.634;2023-04-25T19:19:08;7.30;1.00
1602;DHT22;794;48.592;9.634;2023-04-25T19:21:36;7.30;1.00
1602;DHT22;794;48.592;9.634;2023-04-25T19:24:06;7.30;1.00
1602;DHT22;794;48.592;9.634;2023-04-25T19:26:36;7.20;1.00
1602;DHT22;794;48.592;9.634;2023-04-25T19:29:07;7.50;1.00
1602;DHT22;794;48.592;9.634;2023-04-25T19:31:34;7.30;1.00
1602;DHT22;794;48.592;9.634;2023-04-25T19:34:02;7.20;1.00
1602;DHT22;794;48.592;9.634;2023-04-25T19:36:32;7.20;1.00
1602;DHT22;794;48.592;9.634;2023-04-25T19:39:04;7.30;1.00
1602;DHT22;794;48.592;9.634;2023-04-25T19:41:35;7.20;1.00
1602;DHT22;794;48.592;9.634;2023-04-25T19:44:03;7.20;1.00
1602;DHT22;794;48.592;9.634;2023-04-25T19:46:32;7.20;1.00
1602;DHT22;794;48.592;9.634;2023-04-25T19:48:59;7.20;1.00
1602;DHT22;794;48.592;9.634;2023-04-25T19:51:27;7.20;1.00
1602;DHT22;794;48.592;9.634;2023-04-25T19:54:01;7.50;1.00
1602;DHT22;794;48.592;9.634;2023-04-25T19:56:31;7.00;1.00
1602;DHT22;794;48.592;9.634;2023-04-25T19:59:01;7.00;1.00
1602;DHT22;794;48.592;9.634;2023-04-25T20:01:31;7.50;1.00
1602;DHT22;794;48.592;9.634;2023-04-25T20:04:01;8.10;1.00
1602;DHT22;794;48.592;9.634;2023-04-25T20:06:30;7.20;1.00
1602;DHT22;794;48.592;9.634;2023-04-25T20:08:57;7.30;1.00
1602;DHT22;794;48.592;9.634;2023-04-25T20:11:25;6.90;1.00
1602;DHT22;794;48.592;9.634;2023-04-25T20:13:57;7.20;1.00
1602;DHT22;794;48.592;9.634;2023-04-25T20:16:24;7.20;1.00
1602;DHT22;794;48.592;9.634;2023-04-25T20:18:50;7.20;1.00
1602;DHT22;794;48.592;9.634;2023-04-25T20:21:21;7.00;1.00
1602;DHT22;794;48.592;9.634;2023-04-25T20:23:51;7.10;1.00
1602;DHT22;794;48.592;9.634;2023-04-25T20:26:21;7.00;1.00
1602;DHT22;794;48.592;9.634;2023-04-25T20:28:50;7.30;1.00
1602;DHT22;794;48.592;9.634;2023-04-25T20:31:19;7.40;1.00
1602;DHT22;794;48.592;9.634;2023-04-25T20:33:46;7.10;1.00
1602;DHT22;794;48.592;9.634;2023-04-25T20:36:16;7.10;1.00
1602;DHT22;794;48.592;9.634;2023-04-25T20:38:44;7.10;1.00
1602;DHT22;794;48.592;9.634;2023-04-25T20:41:11;7.20;1.00
1602;DHT22;794;48.592;9.634;2023-04-25T20:43:40;7.20;1.00
1602;DHT22;794;48.592;9.634;2023-04-25T20:46:07;7.20;1.00
1602;DHT22;794;48.592;9.634;2023-04-25T20:48:36;7.10;1.00
1602;DHT22;794;48.592;9.634;2023-04-25T20:51:05;6.90;1.00
1602;DHT22;794;48.592;9.634;2023-04-25T20:53:36;7.00;1.00
1602;DHT22;794;48.592;9.634;2023-04-25T20:56:05;7.10;1.00
1602;DHT22;794;48.592;9.634;2023-04-25T20:58:32;7.10;1.00
1602;DHT22;794;48.592;9.634;2023-04-25T21:00:59;7.00;1.00
1602;DHT22;794;48.592;9.634;2023-04-25T21:03:26;7.00;1.00
1602;DHT22;794;48.592;9.634;2023-04-25T21:05:57;7.10;1.00
1602;DHT22;794;48.592;9.634;2023-04-25T21:08:24;7.10;1.00
1602;DHT22;794;48.592;9.634;2023-04-25T21:10:51;7.20;1.00